CheckWX is a tool to help pilots better visualize weather data.  It is not intended as a substitute for an official pre-flight weather briefing.

03:44:43 UTC

KICT METAR
Wichita Dwight D Eisenhower National Airport
Wichita, Kansas, USA
Current

52 mins ago

KICT 270253Z 14010KT 10SM FEW055 BKN150 23/20 A2991 RMK AO2 SLP116 T02330200 57010
Observed
May-27 @ 02:53 UTC
Wind
  • 140° at 10 KTS
Visibility
10 SM
Flight Rules
VFR
Cloud Levels
  • Few at 5,500' AGL
  • Broken at 15,000' AGL
Temperature
23°C / 73°F
Dewpoint
20°C / 68°F
Humidity
83%
Altimeter
29.91" Hg
Pressure
1012.92 hPa
Previous

2 hours ago

KICT 270153Z 13008KT 10SM BKN055 OVC150 23/20 A2991 RMK AO2 SLP119 T02330200
Observed
May-27 @ 01:53 UTC
Wind
  • 130° at 8 KTS
Visibility
10 SM
Flight Rules
VFR
Cloud Levels
  • Broken at 5,500' AGL
  • Overcast at 15,000' AGL
Temperature
23°C / 73°F
Dewpoint
20°C / 68°F
Humidity
83%
Altimeter
29.91" Hg
Pressure
1012.92 hPa
Previous

3 hours ago

KICT 270053Z 14009KT 10SM BKN050 BKN120 BKN170 24/19 A2993 RMK AO2 SLP126 T02390194
Observed
May-27 @ 00:53 UTC
Wind
  • 140° at 9 KTS
Visibility
10 SM
Flight Rules
VFR
Cloud Levels
  • Broken at 5,000' AGL
  • Broken at 12,000' AGL
  • Broken at 17,000' AGL
Temperature
24°C / 75°F
Dewpoint
19°C / 66°F
Humidity
74%
Altimeter
29.93" Hg
Pressure
1013.52 hPa